Woodhull, Illinois
Current Conditions -  °F | °C
As of 6:35 PM on Monday 24 Nov 2014 (Local Time) from KGBG Reporting Station
Overcast Overcast  
Wind Chill: 15°   Ceiling: 1600
Heat Index: 28°   Visibility: 10mi
Dew Point: 24°   Wind: 16mph
Humidity: 86%   Direction: 250°WSW
Pressure: 29.81"   Gusts: 21mph
Location:  41.18°N, 90.32°W
Report Text: KGBG 250035Z AUTO 25014G18KT 10SM OVC016 M02/M04 A2981 RMK AO2 T10251045
Loading
Personal Weather Stations






























Interactive Weather Map New forecast layout! Learn more

10-Day Weather Forecast

Advertisements
Track Severe Weather on mobile